• Join FlightAware (Why Join?)
  • Login
  • US Flag 
02:54PM EDT


 

Airport Tracker/Info


-or-


 

Live Flight TrackerFlight Track Log ✈ SWA662 ✈ 03-Jun-2013 ✈ KLAX - KDEN

Flight Track Log - Related Links

Times and Time Zones

All times are in EDT time to prevent confusion due to time zone crossing. See the SWA662 flight status page for this flight to view local times or setup timezone preferences in your user account.

Time Position Orientation Groundspeed Altitude Reporting Facility
EDT Latitude Longitude Course Direction KTS MPH feet Rate Location/Type
11:07PM 33.9478 -118.4578 59° Northeast 172 198 1,800  Level Los Angeles Center
11:08PM 33.9453 -118.5350 268° West 228 262 4,700 2,940 Climbing Los Angeles Center
11:09PM 33.8983 -118.5500 195° South 229 264 7,900 2,820 Climbing Los Angeles Center
11:10PM 33.9183 -118.4661 74° East 257 296 10,600 1,740 Climbing Los Angeles Center
11:11PM 33.9625 -118.3794 58° Northeast 342 394 11,500 1,800 Climbing Los Angeles Center
11:12PM 34.0253 -118.2686 56° Northeast 389 448 14,400 2,820 Climbing Los Angeles Center
11:13PM 34.3471 -117.6892 59° Northeast  Level FlightAware Approximate
11:13PM 34.0919 -118.1539 55° Northeast 409 471 17,400  Level Los Angeles Center
11:14PM 34.1731 -118.0100 56° Northeast 428 493 20,700 2,580 Climbing Los Angeles Center
11:16PM 34.2572 -117.8589 56° Northeast 448 516 23,300 1,860 Climbing Los Angeles Center
11:17PM 34.3314 -117.7261 56° Northeast 470 541 25,000 1,680 Climbing Los Angeles Center
11:18PM 34.4008 -117.5983 57° Northeast 482 555 26,800 1,980 Climbing Los Angeles Center
11:19PM 34.4772 -117.4608 56° Northeast 490 564 29,100 2,160 Climbing Los Angeles Center
11:20PM 34.5667 -117.2972 56° Northeast 490 564 31,300 1,800 Climbing Los Angeles Center
11:21PM 34.6411 -117.1622 56° Northeast 488 562 32,900 1,560 Climbing Los Angeles Center
11:22PM 34.7164 -117.0283 56° Northeast 487 560 34,600 1,380 Climbing Los Angeles Center
11:23PM 34.8083 -116.9069 47° Northeast 489 563 35,800 1,140 Climbing Los Angeles Center
11:24PM 34.8994 -116.7858 47° Northeast 488 562 37,000 540 Climbing Los Angeles Center
11:25PM 34.9903 -116.6617 48° Northeast 493 567 37,000  Level Los Angeles Center
11:26PM 35.0997 -116.5156 48° Northeast 488 562 37,000  Level Los Angeles Center
11:27PM 35.1881 -116.3936 48° Northeast 482 555 37,000  Level Los Angeles Center
11:28PM 35.2778 -116.2700 48° Northeast 487 560 37,000  Level Los Angeles Center
11:29PM 35.3681 -116.1467 48° Northeast 488 562 37,000  Level Los Angeles Center
11:30PM 35.4578 -116.0222 48° Northeast 488 562 37,000  Level Los Angeles Center
11:31PM 35.5472 -115.8631 55° Northeast 485 558 37,000  Level Los Angeles Center
11:32PM 35.6072 -115.7178 63° Northeast 479 551 37,000  Level Los Angeles Center
11:33PM 35.6675 -115.5656 64° Northeast 491 565 37,000  Level Los Angeles Center
11:34PM 35.7264 -115.4169 64° Northeast 490 564 37,000  Level Los Angeles Center
11:35PM 35.7853 -115.2683 64° Northeast 487 560 37,000  Level Los Angeles Center
11:36PM 35.8417 -115.1183 65° Northeast 484 557 37,000  Level Los Angeles Center
11:37PM 35.9122 -114.9397 64° Northeast 486 559 37,000  Level Los Angeles Center
11:38PM 35.9697 -114.7900 65° Northeast 487 560 37,000  Level Los Angeles Center
11:39PM 36.0269 -114.6411 65° Northeast 483 556 37,000  Level Los Angeles Center
11:40PM 36.0844 -114.4914 65° Northeast 483 556 37,000  Level Los Angeles Center
11:41PM 36.1419 -114.3414 65° Northeast 484 557 37,000  Level Los Angeles Center
11:42PM 36.1994 -114.1919 64° Northeast 483 556 37,000  Level Los Angeles Center
11:43PM 36.2553 -114.0431 65° Northeast 479 551 37,000  Level Los Angeles Center
11:44PM 36.3222 -113.8656 65° Northeast 476 548 37,000  Level Los Angeles Center
11:46PM 36.3775 -113.7183 65° Northeast 473 544 37,000  Level Los Angeles Center
11:47PM 36.4450 -113.5392 65° Northeast 476 548 37,000  Level Los Angeles Center
11:48PM 36.5053 -113.3758 65° Northeast 477 549 37,000  Level Los Angeles Center
11:49PM 36.5606 -113.2269 65° Northeast 477 549 37,000  Level Los Angeles Center
11:50PM 36.6158 -113.0767 65° Northeast 478 550 37,000  Level Los Angeles Center
11:51PM 36.6700 -112.9264 66° East 479 551 37,000  Level Los Angeles Center
11:52PM 36.7256 -112.7764 65° Northeast 479 551 37,000  Level Los Angeles Center
11:53PM 36.7806 -112.6244 66° East 482 555 37,000  Level Los Angeles Center
11:54PM 36.8461 -112.4406 66° East 486 559 37,000  Level Los Angeles Center
11:55PM 36.9019 -112.2878 65° Northeast 487 560 37,000  Level Los Angeles Center
11:56PM 36.9558 -112.1333 66° East 487 560 37,000  Level Los Angeles Center
11:57PM 37.0108 -111.9806 66° East 486 559 37,000  Level Los Angeles Center
11:58PM 37.0647 -111.8261 66° East 487 560 37,000  Level Los Angeles Center
11:59PM 37.1197 -111.6719 66° East 487 560 37,000  Level Los Angeles Center
11:59PM 37.1406 -111.6108 67° East 486 559 37,000  Level Denver Center
12:00AM 37.1944 -111.4561 66° East 487 560 37,000  Level Denver Center
12:01AM 37.2475 -111.3022 67° East 483 556 37,000  Level Denver Center
12:02AM 37.3008 -111.1472 67° East 485 558 37,000  Level Denver Center
12:03AM 37.3536 -110.9919 67° East 484 557 37,000  Level Denver Center
12:04AM 37.4069 -110.8369 67° East 484 557 37,000  Level Denver Center
12:06AM 37.4603 -110.6825 66° East 484 557 37,000  Level Denver Center
12:07AM 37.5178 -110.5128 67° East 484 557 37,000  Level Denver Center
12:08AM 37.5758 -110.3364 67° East 486 559 37,000  Level Denver Center
12:09AM 37.6272 -110.1839 67° East 491 565 37,000  Level Denver Center
12:10AM 37.6703 -110.0564 67° East 494 568 37,000  Level Denver Center
12:11AM 37.7367 -109.8517 68° East 493 567 37,000  Level Denver Center
12:12AM 37.7881 -109.6969 67° East 496 571 37,000  Level Denver Center
12:13AM 37.8469 -109.5156 68° East 499 574 37,000  Level Denver Center
12:14AM 37.8972 -109.3619 67° East 495 570 37,000  Level Denver Center
12:15AM 37.9633 -109.1564 68° East 493 567 37,000  Level Denver Center
12:16AM 38.0133 -109.0014 68° East 495 570 37,000  Level Denver Center
12:17AM 38.0681 -108.8283 68° East 500 575 37,000  Level Denver Center
12:18AM 38.1167 -108.6731 68° East 498 573 37,000  Level Denver Center
12:19AM 38.1739 -108.4928 68° East 496 571 37,000  Level Denver Center
12:20AM 38.2225 -108.3383 68° East 494 568 37,000  Level Denver Center
12:21AM 38.2706 -108.1825 69° East 494 568 37,000  Level Denver Center
12:22AM 38.3269 -108.0014 68° East 496 571 37,000  Level Denver Center
12:23AM 38.3811 -107.8211 69° East 492 566 37,000  Level Denver Center
12:24AM 38.4375 -107.6383 68° East 496 571 37,000 -180 Level Denver Center
12:25AM 38.4981 -107.4906 62° Northeast 492 566 36,700 -720 Descending Denver Center
12:26AM 38.5733 -107.3211 60° Northeast 491 565 35,600 -840 Descending Denver Center
12:27AM 38.6389 -107.1753 60° Northeast 494 568 35,000 -300 Descending Denver Center
12:28AM 38.7008 -107.0372 60° Northeast 497 572 35,000  Level Denver Center
12:29AM 38.7681 -106.8836 61° Northeast 497 572 35,000  Level Denver Center
12:30AM 38.8478 -106.7022 61° Northeast 489 563 35,000  Level Denver Center
12:31AM 38.9219 -106.5439 59° Northeast 492 566 35,000 -420 Level Denver Center
12:32AM 38.9883 -106.4003 59° Northeast 491 565 34,200 -1,680 Descending Denver Center
12:33AM 39.0533 -106.2578 60° Northeast 486 559 31,700 -2,400 Descending Denver Center
12:34AM 39.1186 -106.1097 60° Northeast 471 542 29,400 -2,340 Descending Denver Center
12:35AM 39.1800 -105.9706 60° Northeast 455 524 27,000 -2,340 Descending Denver Center
12:36AM 39.2394 -105.8333 61° Northeast 443 510 24,700 -2,040 Descending Denver Center
12:38AM 39.2972 -105.7039 60° Northeast 425 489 22,500 -2,160 Descending Denver Center
12:39AM 39.3642 -105.5525 60° Northeast 409 471 19,900 -2,460 Descending Denver Center
12:40AM 39.3989 -105.4031 73° East 390 449 17,500 -2,280 Descending Denver Center
12:41AM 39.4056 -105.2539 87° East 386 444 15,300 -1,260 Descending Denver Center
12:42AM 39.4117 -105.1219 87° East 368 423 15,000 -1,080 Descending Denver Center
12:43AM 39.4200 -104.9928 85° East 363 418 13,200 -1,920 Descending Denver Center
12:44AM 39.4650 -104.8819 62° Northeast 347 399 11,200 -1,140 Descending Denver Center
12:45AM 39.5025 -104.7781 65° Northeast 318 366 11,000 -480 Descending Denver Center
12:46AM 39.5672 -104.7267 31° Northeast 258 297 10,300 -900 Descending Denver Center
12:47AM 39.6258 -104.6992 20° North 229 264 9,200 -900 Descending Denver Center
12:48AM 39.6686 -104.6639 32° Northeast 184 212 8,500 -780 Descending Denver Center
12:49AM 39.7056 -104.6464 20° North 141 162 7,700 -780 Descending Denver Center
12:50AM 39.7439 -104.6425 North 130 150 7,000 -720 Descending Denver Center
12:51AM 39.7825 -104.6428 360° North 138 159 6,300 -600 Descending Denver Center
12:52AM 39.8108 -104.6422 North 135 155 5,800 -540 Descending Denver Center
12:53AM 39.8511 -104.6414 North 127 146 5,300 -540 Descending Denver Center
12:55AM 39.8500 -104.6667 North  Level FlightAware Approximate
01:02AM 39.8617 -104.6732 North  Level Estimated
01:03AM 39.8617 -104.6732 North  Level Estimated
01:04AM 39.8617 -104.6732 North  Level Estimated